Terminal Aerodrome Forecast
Issued by NWS

Home | Current Version | Previous Version | Text Only | Print | Product List | Glossary On
Versions: 1 2 3 4 5 6 7 8 9 10 11 12 13 14 15 16 17 18 19 20 21 22 23 24 25 26 27 28 29 30
000
FTAK31 PAFA 310539
TAFATA
TAF
PATA 310539Z 3106/0106 31007KT P6SM SCT035 BKN050 BKN100
     FM310900 VRB04KT P6SM SCT050 BKN100
     FM311800 27009KT P6SM SCT080 SCT120=

USA.gov is the U.S. government's official web portal to all federal, state and local government web resources and services.